createdAt,value
2016-11-24T00:00:07.950Z,0
2016-11-24T00:00:48.662Z,0
2016-11-24T00:01:29.339Z,0
2016-11-24T00:02:10.001Z,0
2016-11-24T00:02:50.704Z,0
2016-11-24T00:03:31.365Z,0
2016-11-24T00:04:12.106Z,0
2016-11-24T00:04:52.808Z,0
2016-11-24T00:05:33.485Z,0
2016-11-24T00:06:14.248Z,0
2016-11-24T00:06:54.926Z,0
2016-11-24T00:07:35.632Z,0
2016-11-24T00:08:16.332Z,0
2016-11-24T00:08:57.006Z,0
2016-11-24T00:09:37.666Z,0
2016-11-24T00:10:18.346Z,0
2016-11-24T00:10:59.126Z,0
2016-11-24T00:11:39.849Z,0
2016-11-24T00:12:20.524Z,0
2016-11-24T00:13:01.212Z,0
2016-11-24T00:13:41.998Z,0
2016-11-24T00:14:22.690Z,0
2016-11-24T00:15:03.426Z,0
2016-11-24T00:15:44.153Z,0
2016-11-24T00:16:24.850Z,0
2016-11-24T00:17:05.537Z,0
2016-11-24T00:17:46.263Z,0
2016-11-24T00:18:26.963Z,0
2016-11-24T00:19:07.721Z,0
2016-11-24T00:19:48.351Z,0
2016-11-24T00:20:29.063Z,0
2016-11-24T00:21:09.767Z,0
2016-11-24T00:21:50.418Z,0
2016-11-24T00:22:31.186Z,0
2016-11-24T00:23:11.841Z,0
2016-11-24T00:23:52.558Z,0
2016-11-24T00:24:33.286Z,0
2016-11-24T00:25:13.994Z,0
2016-11-24T00:25:54.721Z,0
2016-11-24T00:26:35.436Z,0
2016-11-24T00:27:16.121Z,0
2016-11-24T00:27:56.843Z,0
2016-11-24T00:28:37.496Z,0
2016-11-24T00:29:18.169Z,0
2016-11-24T00:29:58.850Z,0
2016-11-24T00:30:39.635Z,0
2016-11-24T00:31:20.300Z,0
2016-11-24T00:32:00.975Z,0
2016-11-24T00:32:41.681Z,0
2016-11-24T00:33:22.373Z,0
2016-11-24T00:34:03.053Z,0
2016-11-24T00:34:43.743Z,0
2016-11-24T00:35:24.493Z,0
2016-11-24T00:36:05.176Z,0
2016-11-24T00:36:45.918Z,0
2016-11-24T00:37:26.657Z,0
2016-11-24T00:38:07.333Z,0
2016-11-24T00:38:47.982Z,0
2016-11-24T00:39:28.681Z,0
2016-11-24T00:40:09.418Z,0
2016-11-24T00:40:50.059Z,0
2016-11-24T00:41:30.780Z,0
2016-11-24T00:42:11.416Z,0
2016-11-24T00:42:52.171Z,0
2016-11-24T00:43:32.823Z,0
2016-11-24T00:44:13.532Z,0
2016-11-24T00:44:54.213Z,0
2016-11-24T00:45:34.968Z,0
2016-11-24T00:46:15.635Z,0
2016-11-24T00:46:56.337Z,0
2016-11-24T00:47:37.030Z,0
2016-11-24T00:48:17.696Z,0
2016-11-24T00:48:58.410Z,0
2016-11-24T00:49:39.166Z,0
2016-11-24T00:50:19.838Z,0
2016-11-24T00:51:00.569Z,0
2016-11-24T00:51:41.322Z,0
2016-11-24T00:52:22.001Z,0
2016-11-24T00:53:02.704Z,0
2016-11-24T00:53:43.410Z,0
2016-11-24T00:54:24.089Z,0
2016-11-24T00:55:04.824Z,0
2016-11-24T00:55:45.578Z,0
2016-11-24T00:56:26.259Z,0
2016-11-24T00:57:06.945Z,0
2016-11-24T00:57:47.652Z,0
2016-11-24T00:58:28.324Z,0
2016-11-24T00:59:09.035Z,0
2016-11-24T00:59:49.710Z,0
2016-11-24T01:00:30.380Z,0
2016-11-24T01:01:11.034Z,0
2016-11-24T01:01:51.807Z,0
2016-11-24T01:02:32.496Z,0
2016-11-24T01:03:13.206Z,0
2016-11-24T01:03:53.872Z,0
2016-11-24T01:04:34.617Z,0
2016-11-24T01:05:15.265Z,0
2016-11-24T01:05:55.945Z,0
2016-11-24T01:06:36.614Z,0
2016-11-24T01:07:17.420Z,0
2016-11-24T01:07:58.102Z,0
2016-11-24T01:08:38.803Z,0
2016-11-24T01:09:19.484Z,0
2016-11-24T01:10:00.185Z,0
2016-11-24T01:10:40.911Z,0
2016-11-24T01:11:21.630Z,0
2016-11-24T01:12:02.312Z,0
2016-11-24T01:12:42.987Z,0
2016-11-24T01:13:23.664Z,0
2016-11-24T01:14:04.382Z,0
2016-11-24T01:14:45.045Z,0
2016-11-24T01:15:25.763Z,0
2016-11-24T01:16:06.445Z,0
2016-11-24T01:16:47.168Z,0
2016-11-24T01:17:27.888Z,0
2016-11-24T01:18:08.561Z,0
2016-11-24T01:18:49.274Z,0
2016-11-24T01:19:29.952Z,0
2016-11-24T01:20:10.587Z,0
2016-11-24T01:20:51.255Z,0
2016-11-24T01:21:32.010Z,0
2016-11-24T01:22:12.658Z,0
2016-11-24T01:22:53.318Z,0
2016-11-24T01:23:33.978Z,0
2016-11-24T01:24:14.669Z,0
2016-11-24T01:24:55.337Z,0
2016-11-24T01:25:36.032Z,0
2016-11-24T01:26:16.655Z,0
2016-11-24T01:26:57.315Z,0
2016-11-24T01:27:38.018Z,0
2016-11-24T01:28:18.669Z,0
2016-11-24T01:28:59.375Z,0
2016-11-24T01:29:40.093Z,0
2016-11-24T01:30:20.727Z,0
2016-11-24T01:31:01.464Z,0
2016-11-24T01:31:42.154Z,0
2016-11-24T01:32:22.839Z,0
2016-11-24T01:33:03.547Z,0
2016-11-24T01:33:44.236Z,0
2016-11-24T01:34:24.985Z,0
2016-11-24T01:35:05.629Z,0
2016-11-24T01:35:46.286Z,0
2016-11-24T01:36:27.013Z,0
2016-11-24T01:37:07.752Z,0
2016-11-24T01:37:48.459Z,0
2016-11-24T01:38:29.173Z,0
2016-11-24T01:39:09.795Z,0
2016-11-24T01:39:50.479Z,0
2016-11-24T01:40:31.192Z,0
2016-11-24T01:41:11.969Z,0
2016-11-24T01:41:52.709Z,0
2016-11-24T01:42:33.402Z,0
2016-11-24T01:43:14.075Z,0
2016-11-24T01:43:54.788Z,0
2016-11-24T01:44:35.473Z,0
2016-11-24T01:45:16.185Z,0
2016-11-24T01:45:56.911Z,0
2016-11-24T01:46:37.596Z,0
2016-11-24T01:47:18.319Z,0
2016-11-24T01:47:59.002Z,0
2016-11-24T01:48:39.681Z,0
2016-11-24T01:49:20.310Z,0
2016-11-24T01:50:01.021Z,0
2016-11-24T01:50:41.719Z,0
2016-11-24T01:51:22.414Z,0
2016-11-24T01:52:03.190Z,0
2016-11-24T01:52:43.863Z,0
2016-11-24T01:53:24.557Z,0
2016-11-24T01:54:05.295Z,0
2016-11-24T01:54:45.990Z,0
2016-11-24T01:55:26.755Z,0
2016-11-24T01:56:07.399Z,0
2016-11-24T01:56:48.047Z,0
2016-11-24T01:57:28.744Z,0
2016-11-24T01:58:09.442Z,0
2016-11-24T01:58:50.145Z,0
2016-11-24T01:59:30.827Z,0
2016-11-24T02:00:11.586Z,0
2016-11-24T02:00:52.337Z,0
2016-11-24T02:01:33.010Z,0
2016-11-24T02:02:13.686Z,0
2016-11-24T02:02:54.489Z,0
2016-11-24T02:03:35.140Z,0
2016-11-24T02:04:15.859Z,0
2016-11-24T02:04:56.588Z,0
2016-11-24T02:05:37.300Z,0
2016-11-24T02:06:18.070Z,0
2016-11-24T02:06:58.756Z,0
2016-11-24T02:07:39.485Z,0
2016-11-24T02:08:20.208Z,0
2016-11-24T02:09:00.882Z,0
2016-11-24T02:09:41.606Z,0
2016-11-24T02:10:22.263Z,0
2016-11-24T02:11:02.940Z,0
2016-11-24T02:11:43.629Z,0
2016-11-24T02:12:24.339Z,0
2016-11-24T02:13:05.048Z,0
2016-11-24T02:13:45.710Z,0
2016-11-24T02:14:26.410Z,0
2016-11-24T02:15:07.102Z,0
2016-11-24T02:15:47.784Z,0
2016-11-24T02:16:28.483Z,0
2016-11-24T02:17:09.200Z,0
2016-11-24T02:17:49.878Z,0
2016-11-24T02:18:30.587Z,0
2016-11-24T02:19:11.287Z,0
2016-11-24T02:19:51.967Z,0
2016-11-24T02:20:32.740Z,0
2016-11-24T02:21:13.450Z,0
2016-11-24T02:21:54.088Z,0
2016-11-24T02:22:34.800Z,0
2016-11-24T02:23:15.492Z,0
2016-11-24T02:23:56.177Z,0
2016-11-24T02:24:36.870Z,0
2016-11-24T02:25:17.540Z,0
2016-11-24T02:25:58.245Z,0
2016-11-24T02:26:38.920Z,0
2016-11-24T02:27:19.633Z,0
2016-11-24T02:28:00.341Z,0
2016-11-24T02:28:41.042Z,0
2016-11-24T02:29:21.720Z,0
2016-11-24T02:30:02.426Z,0
2016-11-24T02:30:43.102Z,0
2016-11-24T02:31:23.840Z,0
2016-11-24T02:32:04.486Z,0
2016-11-24T02:32:45.194Z,0
2016-11-24T02:33:25.939Z,0
2016-11-24T02:34:06.632Z,0
2016-11-24T02:34:47.357Z,0
2016-11-24T02:35:28.039Z,0
2016-11-24T02:36:08.766Z,0
2016-11-24T02:36:49.467Z,0
2016-11-24T02:37:30.177Z,0
2016-11-24T02:38:10.874Z,0
2016-11-24T02:38:51.560Z,0
2016-11-24T02:39:32.248Z,0
2016-11-24T02:40:13.010Z,0
2016-11-24T02:40:53.738Z,0
2016-11-24T02:41:34.491Z,0
2016-11-24T02:42:15.173Z,0
2016-11-24T02:42:55.808Z,0
2016-11-24T02:43:36.517Z,0
2016-11-24T02:44:17.220Z,0
2016-11-24T02:44:57.888Z,0
2016-11-24T02:45:38.578Z,0
2016-11-24T02:46:19.275Z,0
2016-11-24T02:47:00.003Z,0
2016-11-24T02:47:40.682Z,0
2016-11-24T02:48:21.411Z,0
2016-11-24T02:49:02.128Z,0
2016-11-24T02:49:42.871Z,0
2016-11-24T02:50:23.541Z,0
2016-11-24T02:51:04.239Z,0
2016-11-24T02:51:44.975Z,0
2016-11-24T02:52:25.694Z,0
2016-11-24T02:53:06.415Z,0
2016-11-24T02:53:47.130Z,0
2016-11-24T02:54:27.844Z,0
2016-11-24T02:55:08.520Z,0
2016-11-24T02:55:49.269Z,0
2016-11-24T02:56:29.978Z,0
2016-11-24T02:57:10.675Z,0
2016-11-24T02:57:51.376Z,0
2016-11-24T02:58:32.010Z,0
2016-11-24T02:59:12.689Z,0
2016-11-24T02:59:53.413Z,0
2016-11-24T03:00:34.103Z,0
2016-11-24T03:01:14.845Z,0
2016-11-24T03:01:55.562Z,0
2016-11-24T03:02:36.186Z,0
2016-11-24T03:03:16.846Z,0
2016-11-24T03:03:57.583Z,0
2016-11-24T03:04:38.290Z,0
2016-11-24T03:05:18.957Z,0
2016-11-24T03:05:59.680Z,0
2016-11-24T03:06:40.369Z,0
2016-11-24T03:07:21.006Z,0
2016-11-24T03:08:01.678Z,0
2016-11-24T03:08:42.378Z,0
2016-11-24T03:09:23.121Z,0
2016-11-24T03:10:03.865Z,0
2016-11-24T03:10:44.531Z,0
2016-11-24T03:11:25.276Z,0
2016-11-24T03:12:05.944Z,0
2016-11-24T03:12:46.684Z,0
2016-11-24T03:13:27.354Z,0
2016-11-24T03:14:08.054Z,0
2016-11-24T03:14:48.747Z,0
2016-11-24T03:15:29.450Z,0
2016-11-24T03:16:10.200Z,0
2016-11-24T03:16:50.913Z,0
2016-11-24T03:17:31.604Z,0
2016-11-24T03:18:12.301Z,0
2016-11-24T03:18:53.036Z,0
2016-11-24T03:19:33.731Z,0
2016-11-24T03:20:14.448Z,0
2016-11-24T03:20:55.135Z,0
2016-11-24T03:21:35.841Z,0
2016-11-24T03:22:16.552Z,0
2016-11-24T03:22:57.320Z,0
2016-11-24T03:23:37.995Z,0
2016-11-24T03:24:18.619Z,0
2016-11-24T03:24:59.323Z,0
2016-11-24T03:25:40.018Z,0
2016-11-24T03:26:20.726Z,0
2016-11-24T03:27:01.432Z,0
2016-11-24T03:27:42.132Z,0
2016-11-24T03:28:22.844Z,0
2016-11-24T03:29:03.550Z,0
2016-11-24T03:29:44.209Z,0
2016-11-24T03:30:24.904Z,0
2016-11-24T03:31:05.680Z,0
2016-11-24T03:31:46.378Z,0
2016-11-24T03:32:27.056Z,0
2016-11-24T03:33:07.721Z,0
2016-11-24T03:33:48.384Z,0
2016-11-24T03:34:29.128Z,0
2016-11-24T03:35:09.828Z,0
2016-11-24T03:35:50.522Z,0
2016-11-24T03:36:31.253Z,0
2016-11-24T03:37:11.966Z,0
2016-11-24T03:37:52.669Z,0
2016-11-24T03:38:33.383Z,0
2016-11-24T03:39:14.100Z,0
2016-11-24T03:39:54.813Z,0
2016-11-24T03:40:35.510Z,0
2016-11-24T03:41:16.193Z,0
2016-11-24T03:41:56.913Z,0
2016-11-24T03:42:37.626Z,0
2016-11-24T03:43:18.292Z,0
2016-11-24T03:43:58.993Z,0
2016-11-24T03:44:39.663Z,0
2016-11-24T03:45:20.370Z,0
2016-11-24T03:46:01.136Z,0
2016-11-24T03:46:41.800Z,0
2016-11-24T03:47:22.498Z,0
2016-11-24T03:48:03.213Z,0
2016-11-24T03:48:43.961Z,0
2016-11-24T03:49:24.706Z,0
2016-11-24T03:50:05.404Z,0
2016-11-24T03:50:46.036Z,0
2016-11-24T03:51:26.720Z,0
2016-11-24T03:52:07.407Z,0
2016-11-24T03:52:48.087Z,0
2016-11-24T03:53:28.807Z,0
2016-11-24T03:54:09.515Z,0
2016-11-24T03:54:50.213Z,0
2016-11-24T03:55:30.920Z,0
2016-11-24T03:56:11.572Z,0
2016-11-24T03:56:52.271Z,0
2016-11-24T03:57:33.021Z,0
2016-11-24T03:58:13.769Z,0
2016-11-24T03:58:54.455Z,0
2016-11-24T03:59:35.125Z,0
2016-11-24T04:00:15.830Z,0
2016-11-24T04:00:56.540Z,0
2016-11-24T04:01:37.241Z,0
2016-11-24T04:02:17.922Z,0
2016-11-24T04:02:58.662Z,0
2016-11-24T04:03:39.350Z,0
2016-11-24T04:04:20.023Z,0
2016-11-24T04:05:00.748Z,0
2016-11-24T04:05:41.418Z,0
2016-11-24T04:06:22.131Z,0
2016-11-24T04:07:02.815Z,0
2016-11-24T04:07:43.518Z,0
2016-11-24T04:08:24.211Z,0
2016-11-24T04:09:04.944Z,0
2016-11-24T04:09:45.592Z,0
2016-11-24T04:10:26.300Z,0
2016-11-24T04:11:06.931Z,0
2016-11-24T04:11:47.648Z,0
2016-11-24T04:12:28.333Z,0
2016-11-24T04:13:09.008Z,0
2016-11-24T04:13:49.708Z,0
2016-11-24T04:14:30.392Z,0
2016-11-24T04:15:11.055Z,0
2016-11-24T04:15:51.743Z,0
2016-11-24T04:16:32.429Z,0
2016-11-24T04:17:13.144Z,0
2016-11-24T04:17:53.838Z,0
2016-11-24T04:18:34.584Z,0
2016-11-24T04:19:15.310Z,0
2016-11-24T04:19:56.005Z,0
2016-11-24T04:20:36.655Z,0
2016-11-24T04:21:17.372Z,0
2016-11-24T04:21:58.143Z,0
2016-11-24T04:22:38.823Z,0
2016-11-24T04:23:19.510Z,0
2016-11-24T04:24:00.135Z,0
2016-11-24T04:24:40.780Z,0
2016-11-24T04:25:21.455Z,0
2016-11-24T04:26:02.163Z,0
2016-11-24T04:26:42.873Z,0
2016-11-24T04:27:23.599Z,0
2016-11-24T04:28:04.301Z,0
2016-11-24T04:28:44.961Z,0
2016-11-24T04:29:25.675Z,0
2016-11-24T04:30:06.371Z,0
2016-11-24T04:30:47.085Z,0
2016-11-24T04:31:27.787Z,0
2016-11-24T04:32:08.453Z,0
2016-11-24T04:32:49.135Z,0
2016-11-24T04:33:29.889Z,0
2016-11-24T04:34:10.596Z,0
2016-11-24T04:34:51.273Z,0
2016-11-24T04:35:31.916Z,0
2016-11-24T04:36:12.625Z,0
2016-11-24T04:36:53.345Z,0
2016-11-24T04:37:34.040Z,0
2016-11-24T04:38:14.745Z,0
2016-11-24T04:38:55.406Z,0
2016-11-24T04:39:36.129Z,0
2016-11-24T04:40:16.803Z,0
2016-11-24T04:40:57.499Z,0
2016-11-24T04:41:38.146Z,0
2016-11-24T04:42:18.784Z,0
2016-11-24T04:42:59.466Z,0
2016-11-24T04:43:40.216Z,0
2016-11-24T04:44:20.868Z,0
2016-11-24T04:45:01.535Z,0
2016-11-24T04:45:42.195Z,0
2016-11-24T04:46:22.870Z,0
2016-11-24T04:47:03.582Z,0
2016-11-24T04:47:44.304Z,0
2016-11-24T04:48:24.960Z,0
2016-11-24T04:49:05.689Z,0
2016-11-24T04:49:46.402Z,0
2016-11-24T04:50:27.112Z,0
2016-11-24T04:51:07.789Z,0
2016-11-24T04:51:48.541Z,0
2016-11-24T04:52:29.193Z,0
2016-11-24T04:53:09.875Z,0
2016-11-24T04:53:50.570Z,0
2016-11-24T04:54:31.239Z,0
2016-11-24T04:55:11.940Z,0
2016-11-24T04:55:52.644Z,0
2016-11-24T04:56:33.357Z,0
2016-11-24T04:57:14.006Z,0
2016-11-24T04:57:54.689Z,0
2016-11-24T04:58:35.376Z,0
2016-11-24T04:59:16.086Z,0
2016-11-24T04:59:56.811Z,0
2016-11-24T05:00:37.577Z,0
2016-11-24T05:01:18.263Z,0
2016-11-24T05:01:58.967Z,0
2016-11-24T05:02:39.685Z,0
2016-11-24T05:03:20.371Z,0
2016-11-24T05:04:01.093Z,0
2016-11-24T05:04:41.780Z,0
2016-11-24T05:05:22.512Z,0
2016-11-24T05:06:03.224Z,0
2016-11-24T05:06:43.902Z,0
2016-11-24T05:07:24.573Z,0
2016-11-24T05:08:05.298Z,0
2016-11-24T05:08:46.028Z,0
2016-11-24T05:09:26.770Z,0
2016-11-24T05:10:07.419Z,0
2016-11-24T05:10:48.153Z,0
2016-11-24T05:11:28.802Z,0
2016-11-24T05:12:09.484Z,0
2016-11-24T05:12:50.160Z,0
2016-11-24T05:13:30.836Z,0
2016-11-24T05:14:11.489Z,0
2016-11-24T05:14:52.115Z,0
2016-11-24T05:15:32.843Z,0
2016-11-24T05:16:13.523Z,0
2016-11-24T05:16:54.188Z,0
2016-11-24T05:17:34.871Z,0
2016-11-24T05:18:15.566Z,0
2016-11-24T05:18:56.282Z,0
2016-11-24T05:19:37.067Z,0
2016-11-24T05:20:17.767Z,0
2016-11-24T05:20:58.502Z,0
2016-11-24T05:21:39.138Z,0
2016-11-24T05:22:19.799Z,0
2016-11-24T05:23:00.472Z,0
2016-11-24T05:23:41.162Z,0
2016-11-24T05:24:21.803Z,0
2016-11-24T05:25:02.489Z,0
2016-11-24T05:25:43.218Z,0
2016-11-24T05:26:23.898Z,0
2016-11-24T05:27:04.610Z,0
2016-11-24T05:27:45.387Z,0
2016-11-24T05:28:26.018Z,0
2016-11-24T05:29:06.757Z,0
2016-11-24T05:29:47.504Z,0
2016-11-24T05:30:28.215Z,0
2016-11-24T05:31:08.927Z,0
2016-11-24T05:31:49.584Z,0
2016-11-24T05:32:30.316Z,0
2016-11-24T05:33:11.022Z,0
2016-11-24T05:33:51.778Z,0
2016-11-24T05:34:32.482Z,0
2016-11-24T05:35:13.207Z,0
2016-11-24T05:35:53.887Z,0
2016-11-24T05:36:34.559Z,0
2016-11-24T05:37:15.230Z,0
2016-11-24T05:37:55.916Z,0
2016-11-24T05:38:36.625Z,0
2016-11-24T05:39:17.332Z,0
2016-11-24T05:39:57.986Z,0
2016-11-24T05:40:38.647Z,0
2016-11-24T05:41:19.330Z,0
2016-11-24T05:42:00.067Z,0
2016-11-24T05:42:40.775Z,0
2016-11-24T05:43:21.430Z,0
2016-11-24T05:44:02.132Z,0
2016-11-24T05:44:42.850Z,0
2016-11-24T05:45:23.552Z,0
2016-11-24T05:46:04.237Z,0
2016-11-24T05:46:44.944Z,0
2016-11-24T05:47:25.647Z,0
2016-11-24T05:48:06.274Z,0
2016-11-24T05:48:46.966Z,0
2016-11-24T05:49:27.666Z,0
2016-11-24T05:50:08.307Z,0
2016-11-24T05:50:48.956Z,0
2016-11-24T05:51:29.606Z,0
2016-11-24T05:52:10.325Z,0
2016-11-24T05:52:50.998Z,0
2016-11-24T05:53:31.778Z,0
2016-11-24T05:54:12.438Z,0
2016-11-24T05:54:53.166Z,0
2016-11-24T05:55:33.868Z,0
2016-11-24T05:56:14.590Z,0
2016-11-24T05:56:55.267Z,0
2016-11-24T05:57:35.935Z,0
2016-11-24T05:58:16.646Z,4
2016-11-24T05:58:57.297Z,12
2016-11-24T05:59:38.074Z,16
2016-11-24T06:00:18.831Z,12
2016-11-24T06:00:59.525Z,12
2016-11-24T06:01:40.288Z,16
2016-11-24T06:02:20.963Z,16
2016-11-24T06:03:01.622Z,16
2016-11-24T06:03:42.340Z,16
2016-11-24T06:04:23.162Z,16
2016-11-24T06:05:03.902Z,16
2016-11-24T06:05:44.600Z,16
2016-11-24T06:06:25.341Z,16
2016-11-24T06:07:06.025Z,16
2016-11-24T06:07:46.750Z,16
2016-11-24T06:08:27.420Z,16
2016-11-24T06:09:08.066Z,16
2016-11-24T06:09:48.861Z,16
2016-11-24T06:10:29.560Z,16
2016-11-24T06:11:10.250Z,16
2016-11-24T06:11:50.989Z,16
2016-11-24T06:12:31.622Z,16
2016-11-24T06:13:12.346Z,16
2016-11-24T06:13:53.035Z,16
2016-11-24T06:14:33.759Z,16
2016-11-24T06:15:14.417Z,16
2016-11-24T06:15:55.137Z,16
2016-11-24T06:16:35.822Z,16
2016-11-24T06:17:16.560Z,16
2016-11-24T06:17:57.245Z,16
2016-11-24T06:18:37.906Z,16
2016-11-24T06:19:18.580Z,16
2016-11-24T06:19:59.239Z,16
2016-11-24T06:20:40.006Z,16
2016-11-24T06:21:20.754Z,16
2016-11-24T06:22:01.408Z,16
2016-11-24T06:22:42.113Z,16
2016-11-24T06:23:22.827Z,16
2016-11-24T06:24:03.461Z,16
2016-11-24T06:24:44.181Z,16
2016-11-24T06:25:24.899Z,16
2016-11-24T06:26:05.576Z,16
2016-11-24T06:26:46.282Z,16
2016-11-24T06:27:26.976Z,16
2016-11-24T06:28:07.706Z,16
2016-11-24T06:28:48.384Z,16
2016-11-24T06:29:29.062Z,16
2016-11-24T06:30:09.719Z,16
2016-11-24T06:30:50.428Z,16
2016-11-24T06:31:31.144Z,16
2016-11-24T06:32:11.801Z,16
2016-11-24T06:32:52.516Z,16
2016-11-24T06:33:33.166Z,16
2016-11-24T06:34:13.930Z,16
2016-11-24T06:34:54.658Z,16
2016-11-24T06:35:35.340Z,16
2016-11-24T06:36:16.090Z,16
2016-11-24T06:36:56.763Z,16
2016-11-24T06:37:37.421Z,16
2016-11-24T06:38:18.112Z,16
2016-11-24T06:38:58.807Z,16
2016-11-24T06:39:39.498Z,16
2016-11-24T06:40:20.261Z,16
2016-11-24T06:41:01.007Z,16
2016-11-24T06:41:41.705Z,16
2016-11-24T06:42:22.427Z,16
2016-11-24T06:43:03.125Z,16
2016-11-24T06:43:43.808Z,16
2016-11-24T06:44:24.497Z,16
2016-11-24T06:45:05.226Z,16
2016-11-24T06:45:45.872Z,16
2016-11-24T06:46:26.548Z,16
2016-11-24T06:47:07.243Z,16
2016-11-24T06:47:47.931Z,20
2016-11-24T06:48:28.606Z,20
2016-11-24T06:49:09.257Z,20
2016-11-24T06:49:49.932Z,20
2016-11-24T06:50:30.645Z,20
2016-11-24T06:51:11.292Z,20
2016-11-24T06:51:51.991Z,20
2016-11-24T06:52:32.684Z,20
2016-11-24T06:53:13.397Z,16
2016-11-24T06:53:54.087Z,16
2016-11-24T06:54:34.772Z,16
2016-11-24T06:55:15.469Z,16
2016-11-24T06:55:56.217Z,16
2016-11-24T06:56:36.904Z,16
2016-11-24T06:57:17.591Z,16
2016-11-24T06:57:58.329Z,20
2016-11-24T06:58:39.046Z,0
2016-11-24T06:59:19.717Z,0
2016-11-24T07:00:00.416Z,0
2016-11-24T07:00:41.181Z,0
2016-11-24T07:01:21.895Z,0
2016-11-24T07:02:02.564Z,0
2016-11-24T07:02:43.242Z,4
2016-11-24T07:03:23.910Z,4
2016-11-24T07:04:04.617Z,4
2016-11-24T07:04:45.357Z,4
2016-11-24T07:05:26.066Z,4
2016-11-24T07:06:06.833Z,4
2016-11-24T07:06:47.533Z,4
2016-11-24T07:07:28.260Z,4
2016-11-24T07:08:08.959Z,4
2016-11-24T07:08:49.631Z,4
2016-11-24T07:09:30.355Z,4
2016-11-24T07:10:11.080Z,4
2016-11-24T07:10:51.803Z,4
2016-11-24T07:11:32.524Z,4
2016-11-24T07:12:13.193Z,4
2016-11-24T07:12:53.892Z,4
2016-11-24T07:13:34.616Z,4
2016-11-24T07:14:15.296Z,8
2016-11-24T07:14:55.956Z,8
2016-11-24T07:15:36.656Z,8
2016-11-24T07:16:17.348Z,4
2016-11-24T07:16:58.038Z,8
2016-11-24T07:17:38.793Z,8
2016-11-24T07:18:19.504Z,8
2016-11-24T07:19:00.286Z,4
2016-11-24T07:19:40.945Z,8
2016-11-24T07:20:21.619Z,8
2016-11-24T07:21:02.314Z,524
2016-11-24T07:21:43.064Z,628
2016-11-24T07:22:23.771Z,664
2016-11-24T07:23:04.470Z,680
2016-11-24T07:23:45.129Z,692
2016-11-24T07:24:25.855Z,696
2016-11-24T07:25:06.524Z,700
2016-11-24T07:25:47.194Z,700
2016-11-24T07:26:27.935Z,704
2016-11-24T07:27:08.623Z,708
2016-11-24T07:27:49.377Z,712
2016-11-24T07:28:30.050Z,708
2016-11-24T07:29:10.734Z,708
2016-11-24T07:29:51.452Z,712
2016-11-24T07:30:32.198Z,712
2016-11-24T07:31:12.906Z,708
2016-11-24T07:31:53.612Z,708
2016-11-24T07:32:34.349Z,712
2016-11-24T07:33:15.026Z,708
2016-11-24T07:33:55.859Z,712
2016-11-24T07:34:36.676Z,712
2016-11-24T07:35:17.380Z,712
2016-11-24T07:35:58.032Z,712
2016-11-24T07:36:38.734Z,712
2016-11-24T07:37:19.420Z,712
2016-11-24T07:38:00.108Z,712
2016-11-24T07:38:40.807Z,712
2016-11-24T07:39:21.493Z,712
2016-11-24T07:40:02.190Z,716
2016-11-24T07:40:42.917Z,716
2016-11-24T07:41:23.637Z,716
2016-11-24T07:42:04.365Z,716
2016-11-24T07:42:45.107Z,720
2016-11-24T07:43:25.770Z,720
2016-11-24T07:44:06.466Z,720
2016-11-24T07:44:47.164Z,716
2016-11-24T07:45:27.840Z,716
2016-11-24T07:46:08.567Z,720
2016-11-24T07:46:49.391Z,720
2016-11-24T07:47:30.086Z,720
2016-11-24T07:48:10.754Z,720
2016-11-24T07:48:51.445Z,724
2016-11-24T07:49:32.145Z,720
2016-11-24T07:50:12.836Z,724
2016-11-24T07:50:53.509Z,728
2016-11-24T07:51:34.287Z,728
2016-11-24T07:52:15.029Z,728
2016-11-24T07:52:55.751Z,728
2016-11-24T07:53:36.520Z,724
2016-11-24T07:54:17.222Z,724
2016-11-24T07:54:57.893Z,724
2016-11-24T07:55:38.583Z,720
2016-11-24T07:56:19.386Z,720
2016-11-24T07:57:00.100Z,720
2016-11-24T07:57:40.836Z,720
2016-11-24T07:58:21.577Z,716
2016-11-24T07:59:03.226Z,720
2016-11-24T07:59:42.930Z,720
2016-11-24T08:00:23.605Z,720
2016-11-24T08:01:04.343Z,720
2016-11-24T08:01:45.024Z,720
2016-11-24T08:02:25.696Z,720
2016-11-24T08:03:06.391Z,720
2016-11-24T08:03:47.128Z,720
2016-11-24T08:04:27.835Z,720
2016-11-24T08:05:08.527Z,720
2016-11-24T08:05:49.228Z,720
2016-11-24T08:06:29.958Z,720
2016-11-24T08:07:10.591Z,720
2016-11-24T08:07:51.271Z,724
2016-11-24T08:08:32.020Z,720
2016-11-24T08:09:12.783Z,720
2016-11-24T08:09:53.526Z,720
2016-11-24T08:10:34.225Z,724
2016-11-24T08:11:14.926Z,724
2016-11-24T08:11:55.603Z,724
2016-11-24T08:12:36.333Z,724
2016-11-24T08:13:17.021Z,732
2016-11-24T08:13:57.712Z,736
2016-11-24T08:14:38.443Z,728
2016-11-24T08:15:19.134Z,728
2016-11-24T08:15:59.840Z,732
2016-11-24T08:16:40.555Z,732
2016-11-24T08:17:21.274Z,736
2016-11-24T08:18:02.041Z,736
2016-11-24T08:18:42.769Z,732
2016-11-24T08:19:23.481Z,736
2016-11-24T08:20:04.203Z,736
2016-11-24T08:20:44.907Z,736
2016-11-24T08:21:25.633Z,736
2016-11-24T08:22:06.361Z,732
2016-11-24T08:22:47.081Z,732
2016-11-24T08:23:27.750Z,732
2016-11-24T08:24:08.494Z,728
2016-11-24T08:24:49.169Z,732
2016-11-24T08:25:30.650Z,732
2016-11-24T08:26:11.333Z,736
2016-11-24T08:26:51.984Z,736
2016-11-24T08:27:32.781Z,736
2016-11-24T08:28:13.464Z,740
2016-11-24T08:28:54.127Z,736
2016-11-24T08:29:34.976Z,740
2016-11-24T08:30:15.684Z,736
2016-11-24T08:30:56.421Z,736
2016-11-24T08:31:37.075Z,732
2016-11-24T08:32:17.798Z,736
2016-11-24T08:32:58.530Z,732
2016-11-24T08:33:39.251Z,732
2016-11-24T08:34:20.006Z,732
2016-11-24T08:35:00.735Z,732
2016-11-24T08:35:41.502Z,732
2016-11-24T08:36:22.197Z,736
2016-11-24T08:37:02.888Z,736
2016-11-24T08:37:43.613Z,736
2016-11-24T08:38:24.310Z,736
2016-11-24T08:39:05.044Z,740
2016-11-24T08:39:45.710Z,740
2016-11-24T08:40:26.431Z,740
2016-11-24T08:41:07.100Z,736
2016-11-24T08:41:47.814Z,732
2016-11-24T08:42:28.499Z,740
2016-11-24T08:43:09.196Z,732
2016-11-24T08:43:49.849Z,732
2016-11-24T08:44:30.530Z,736
2016-11-24T08:45:11.227Z,736
2016-11-24T08:45:51.964Z,736
2016-11-24T08:46:32.628Z,736
2016-11-24T08:47:13.323Z,732
2016-11-24T08:47:54.054Z,736
2016-11-24T08:48:34.755Z,736
2016-11-24T08:49:15.482Z,740
2016-11-24T08:49:56.174Z,748
2016-11-24T08:50:36.896Z,748
2016-11-24T08:51:17.562Z,748
2016-11-24T08:51:58.248Z,744
2016-11-24T08:52:38.972Z,744
2016-11-24T08:53:19.714Z,744
2016-11-24T08:54:00.401Z,744
2016-11-24T08:54:41.116Z,748
2016-11-24T08:55:21.820Z,744
2016-11-24T08:56:02.502Z,740
2016-11-24T08:56:43.219Z,752
2016-11-24T08:57:23.910Z,752
2016-11-24T08:58:04.603Z,748
2016-11-24T08:58:45.388Z,744
2016-11-24T08:59:26.078Z,744
2016-11-24T09:00:06.810Z,740
2016-11-24T09:00:47.538Z,744
2016-11-24T09:01:28.270Z,752
2016-11-24T09:02:08.935Z,752
2016-11-24T09:02:49.702Z,744
2016-11-24T09:03:30.430Z,740
2016-11-24T09:04:11.128Z,744
2016-11-24T09:04:51.787Z,740
2016-11-24T09:05:32.481Z,740
2016-11-24T09:06:13.229Z,736
2016-11-24T09:06:54.008Z,740
2016-11-24T09:07:34.739Z,744
2016-11-24T09:08:15.446Z,740
2016-11-24T09:08:56.134Z,744
2016-11-24T09:09:36.811Z,752
2016-11-24T09:10:17.490Z,748
2016-11-24T09:10:58.157Z,752
2016-11-24T09:11:38.869Z,748
2016-11-24T09:12:19.554Z,748
2016-11-24T09:13:00.274Z,748
2016-11-24T09:13:40.988Z,744
2016-11-24T09:14:21.654Z,748
2016-11-24T09:15:02.360Z,748
2016-11-24T09:15:43.131Z,748
2016-11-24T09:16:24.011Z,748
2016-11-24T09:17:04.711Z,744
2016-11-24T09:17:45.482Z,748
2016-11-24T09:18:26.127Z,748
2016-11-24T09:19:06.861Z,752
2016-11-24T09:19:47.546Z,748
2016-11-24T09:20:28.253Z,736
2016-11-24T09:21:08.922Z,740
2016-11-24T09:21:49.661Z,740
2016-11-24T09:22:30.328Z,752
2016-11-24T09:23:11.055Z,752
2016-11-24T09:23:51.724Z,748
2016-11-24T09:24:32.373Z,748
2016-11-24T09:25:13.030Z,744
2016-11-24T09:25:53.751Z,744
2016-11-24T09:26:34.463Z,752
2016-11-24T09:27:15.144Z,756
2016-11-24T09:27:55.795Z,760
2016-11-24T09:28:37.272Z,756
2016-11-24T09:29:17.273Z,752
2016-11-24T09:29:57.970Z,744
2016-11-24T09:30:38.690Z,744
2016-11-24T09:31:19.364Z,744
2016-11-24T09:32:00.042Z,748
2016-11-24T09:32:40.720Z,744
2016-11-24T09:33:21.400Z,748
2016-11-24T09:34:02.091Z,748
2016-11-24T09:34:42.788Z,752
2016-11-24T09:35:23.524Z,744
2016-11-24T09:36:04.189Z,748
2016-11-24T09:36:44.910Z,748
2016-11-24T09:37:26.519Z,748
2016-11-24T09:38:07.234Z,748
2016-11-24T09:38:47.947Z,756
2016-11-24T09:39:28.605Z,764
2016-11-24T09:40:09.294Z,764
2016-11-24T09:40:49.954Z,764
2016-11-24T09:41:30.624Z,760
2016-11-24T09:42:11.362Z,752
2016-11-24T09:42:52.043Z,752
2016-11-24T09:43:32.761Z,756
2016-11-24T09:44:13.418Z,756
2016-11-24T09:44:54.082Z,756
2016-11-24T09:45:34.791Z,756
2016-11-24T09:46:15.535Z,756
2016-11-24T09:46:56.253Z,756
2016-11-24T09:47:36.947Z,752
2016-11-24T09:48:17.738Z,748